createdAt,value
2022-08-10T00:02:39.613Z,99.90
2022-08-10T00:05:29.048Z,99.90
2022-08-10T00:08:32.532Z,99.90
2022-08-10T00:11:21.485Z,99.90
2022-08-10T00:14:10.025Z,99.90
2022-08-10T00:17:00.013Z,99.90
2022-08-10T00:20:04.226Z,99.90
2022-08-10T00:22:57.929Z,99.90
2022-08-10T00:25:46.715Z,99.90
2022-08-10T00:28:35.355Z,99.90
2022-08-10T00:31:23.838Z,99.90
2022-08-10T00:34:14.007Z,99.90
2022-08-10T00:37:03.147Z,99.90
2022-08-10T00:39:51.707Z,99.90
2022-08-10T00:42:40.289Z,99.90
2022-08-10T00:45:28.908Z,99.90
2022-08-10T00:48:17.447Z,99.90
2022-08-10T00:51:07.643Z,99.90
2022-08-10T00:53:56.204Z,99.90
2022-08-10T00:57:15.727Z,99.90
2022-08-10T00:59:59.276Z,99.90
2022-08-10T01:02:48.738Z,99.90
2022-08-10T01:05:51.265Z,99.90
2022-08-10T01:08:52.041Z,99.90
2022-08-10T01:12:39.169Z,99.90
2022-08-10T01:15:03.863Z,99.90
2022-08-10T01:17:57.559Z,99.90
2022-08-10T01:21:05.934Z,99.90
2022-08-10T01:24:08.758Z,99.90
2022-08-10T01:27:14.013Z,99.90
2022-08-10T01:30:07.748Z,99.90
2022-08-10T01:33:10.782Z,99.90
2022-08-10T01:36:03.020Z,99.90
2022-08-10T01:38:53.963Z,99.90
2022-08-10T01:41:46.610Z,99.90
2022-08-10T01:44:38.524Z,99.90
2022-08-10T01:47:49.805Z,99.90
2022-08-10T01:50:59.783Z,99.90
2022-08-10T01:53:53.123Z,99.90
2022-08-10T01:56:44.919Z,99.90
2022-08-10T01:59:37.764Z,99.90
2022-08-10T02:02:30.643Z,99.90
2022-08-10T02:05:19.876Z,99.90
2022-08-10T02:08:12.653Z,99.90
2022-08-10T02:11:03.391Z,99.90
2022-08-10T02:13:53.445Z,99.90
2022-08-10T02:16:45.665Z,99.90
2022-08-10T02:19:37.534Z,99.90
2022-08-10T02:22:37.738Z,99.90
2022-08-10T02:25:40.830Z,99.90
2022-08-10T02:28:35.364Z,99.90
2022-08-10T02:31:29.728Z,99.90
2022-08-10T02:34:21.051Z,99.90
2022-08-10T02:37:13.493Z,99.90
2022-08-10T02:40:02.131Z,99.90
2022-08-10T02:45:24.117Z,99.90
2022-08-10T02:46:14.319Z,99.90
2022-08-10T02:49:14.171Z,99.90
2022-08-10T02:52:08.959Z,99.90
2022-08-10T02:55:06.114Z,99.90
2022-08-10T02:58:12.680Z,99.90
2022-08-10T03:01:14.370Z,99.90
2022-08-10T03:04:06.105Z,99.90
2022-08-10T03:06:59.232Z,99.90
2022-08-10T03:09:48.640Z,99.90
2022-08-10T03:12:40.688Z,99.90
2022-08-10T03:15:30.690Z,99.90
2022-08-10T03:18:20.823Z,99.90
2022-08-10T03:21:12.025Z,99.90
2022-08-10T03:24:02.693Z,99.90
2022-08-10T03:27:12.356Z,99.90
2022-08-10T03:30:31.891Z,99.90
2022-08-10T03:33:13.695Z,99.90
2022-08-10T03:36:43.572Z,99.90
2022-08-10T03:39:11.636Z,99.90
2022-08-10T03:42:06.186Z,99.90
2022-08-10T03:44:56.004Z,99.90
2022-08-10T03:47:47.150Z,99.90
2022-08-10T03:50:51.388Z,99.90
2022-08-10T03:54:06.154Z,99.90
2022-08-10T03:56:51.631Z,99.90
2022-08-10T03:59:40.594Z,99.90
2022-08-10T04:02:44.496Z,99.90
2022-08-10T04:05:39.109Z,99.90
2022-08-10T04:08:27.907Z,99.90
2022-08-10T04:11:16.471Z,99.90
2022-08-10T04:14:05.112Z,99.90
2022-08-10T04:16:53.672Z,99.90
2022-08-10T04:19:46.934Z,99.90
2022-08-10T04:22:39.067Z,99.90
2022-08-10T04:25:28.368Z,99.90
2022-08-10T04:28:17.964Z,99.90
2022-08-10T04:31:09.668Z,99.90
2022-08-10T04:34:06.058Z,99.90
2022-08-10T04:37:02.544Z,99.90
2022-08-10T04:39:55.991Z,99.90
2022-08-10T04:42:45.090Z,99.90
2022-08-10T04:45:48.716Z,99.90
2022-08-10T04:48:59.485Z,99.90
2022-08-10T04:51:48.591Z,99.90
2022-08-10T04:54:37.564Z,99.90
2022-08-10T04:57:27.910Z,99.90
2022-08-10T05:00:19.049Z,99.90
2022-08-10T05:03:08.031Z,99.90
2022-08-10T05:05:57.076Z,99.90
2022-08-10T05:08:50.049Z,99.90
2022-08-10T05:11:38.560Z,99.90
2022-08-10T05:14:28.555Z,99.90
2022-08-10T05:17:17.103Z,99.90
2022-08-10T05:20:08.146Z,99.90
2022-08-10T05:22:56.802Z,99.90
2022-08-10T05:25:45.546Z,99.90
2022-08-10T05:28:34.134Z,99.90
2022-08-10T05:31:25.324Z,99.90
2022-08-10T05:34:20.767Z,99.90
2022-08-10T05:38:09.660Z,99.90
2022-08-10T05:40:19.583Z,99.90
2022-08-10T05:43:08.741Z,99.90
2022-08-10T05:46:16.809Z,99.90
2022-08-10T05:49:07.173Z,99.90
2022-08-10T05:51:55.734Z,99.90
2022-08-10T05:54:44.921Z,99.90
2022-08-10T05:57:36.335Z,99.90
2022-08-10T06:00:36.317Z,99.90
2022-08-10T06:03:38.713Z,99.90
2022-08-10T06:06:31.186Z,99.90
2022-08-10T06:09:21.602Z,99.90
2022-08-10T06:12:35.261Z,99.90
2022-08-10T06:15:21.374Z,99.90
2022-08-10T06:18:12.986Z,99.90
2022-08-10T06:21:02.673Z,99.90
2022-08-10T06:23:54.089Z,99.90
2022-08-10T06:26:42.865Z,99.90
2022-08-10T06:29:34.742Z,99.90
2022-08-10T06:32:28.553Z,99.90
2022-08-10T06:35:19.072Z,99.90
2022-08-10T06:38:09.790Z,99.90
2022-08-10T06:41:03.711Z,99.90
2022-08-10T06:43:58.297Z,99.90
2022-08-10T06:46:51.970Z,99.90
2022-08-10T06:49:40.570Z,99.90
2022-08-10T06:52:31.824Z,99.90
2022-08-10T06:55:23.371Z,99.90
2022-08-10T06:58:36.658Z,99.90
2022-08-10T07:01:29.495Z,99.90
2022-08-10T07:04:32.938Z,99.90
2022-08-10T07:07:30.596Z,99.90
2022-08-10T07:10:26.274Z,99.90
2022-08-10T07:14:17.272Z,99.90
2022-08-10T07:16:43.777Z,99.90
2022-08-10T07:19:33.947Z,99.90
2022-08-10T07:23:01.139Z,99.90
2022-08-10T07:25:52.991Z,99.90
2022-08-10T07:28:47.849Z,99.90
2022-08-10T07:31:55.891Z,99.90
2022-08-10T07:34:48.197Z,99.90
2022-08-10T07:37:38.486Z,99.90
2022-08-10T07:40:27.883Z,99.90
2022-08-10T07:43:18.222Z,99.90
2022-08-10T07:46:14.015Z,99.90
2022-08-10T07:49:15.341Z,99.90
2022-08-10T07:52:10.537Z,99.90
2022-08-10T07:55:00.389Z,99.90
2022-08-10T07:57:52.268Z,99.90
2022-08-10T08:00:42.061Z,99.90
2022-08-10T08:03:33.719Z,99.90
2022-08-10T08:06:22.698Z,99.90
2022-08-10T08:09:11.971Z,99.90
2022-08-10T08:12:01.487Z,99.90
2022-08-10T08:14:52.015Z,99.90
2022-08-10T08:17:41.853Z,99.90
2022-08-10T08:20:32.300Z,99.90
2022-08-10T08:24:06.551Z,99.90
2022-08-10T08:26:31.944Z,99.90
2022-08-10T08:29:24.993Z,99.90
2022-08-10T08:32:16.374Z,99.90
2022-08-10T08:35:08.352Z,99.90
2022-08-10T08:38:33.504Z,99.90
2022-08-10T08:41:25.325Z,99.90
2022-08-10T08:44:22.775Z,99.90
2022-08-10T08:48:03.571Z,99.90
2022-08-10T08:50:59.504Z,99.90
2022-08-10T08:54:03.965Z,99.70
2022-08-10T08:57:04.659Z,99.90
2022-08-10T09:00:05.480Z,99.90
2022-08-10T09:03:28.625Z,99.90
2022-08-10T09:06:43.912Z,99.90
2022-08-10T09:10:04.644Z,99.90
2022-08-10T09:13:00.545Z,96.90
2022-08-10T09:16:00.469Z,96.20
2022-08-10T09:18:53.550Z,99.90
2022-08-10T09:21:58.617Z,99.90
2022-08-10T09:25:01.932Z,99.90
2022-08-10T09:27:57.892Z,99.90
2022-08-10T09:31:21.066Z,99.90
2022-08-10T09:36:24.405Z,99.90
2022-08-10T09:37:39.965Z,94.20
2022-08-10T09:41:00.369Z,93.20
2022-08-10T09:43:58.019Z,93.60
2022-08-10T09:46:58.856Z,93.00
2022-08-10T09:50:04.442Z,91.60
2022-08-10T09:53:08.919Z,90.80
2022-08-10T09:56:17.881Z,90.50
2022-08-10T09:59:27.162Z,85.20
2022-08-10T10:02:33.708Z,77.90
2022-08-10T10:05:52.378Z,84.00
2022-08-10T10:08:58.317Z,90.30
2022-08-10T10:12:16.472Z,90.60
2022-08-10T10:15:25.261Z,91.00
2022-08-10T10:18:28.411Z,93.50
2022-08-10T10:21:55.517Z,95.20
2022-08-10T10:24:44.075Z,96.30
2022-08-10T10:27:41.317Z,96.30
2022-08-10T10:30:37.602Z,89.40
2022-08-10T10:33:34.445Z,77.40
2022-08-10T10:36:24.941Z,72.80
2022-08-10T10:39:16.945Z,68.10
2022-08-10T10:42:42.183Z,62.20
2022-08-10T10:45:39.006Z,69.50
2022-08-10T10:48:39.814Z,73.50
2022-08-10T10:51:34.308Z,69.50
2022-08-10T10:54:29.392Z,64.30
2022-08-10T10:57:59.007Z,62.50
2022-08-10T11:00:44.925Z,59.10
2022-08-10T11:03:49.082Z,55.50
2022-08-10T11:06:50.639Z,53.60
2022-08-10T11:10:09.306Z,52.60
2022-08-10T11:14:26.908Z,57.00
2022-08-10T11:16:18.879Z,60.80
2022-08-10T11:19:16.046Z,64.50
2022-08-10T11:22:16.425Z,67.40
2022-08-10T11:25:11.384Z,70.30
2022-08-10T11:28:13.872Z,72.60
2022-08-10T11:31:08.116Z,72.00
2022-08-10T11:34:48.216Z,75.10
2022-08-10T11:37:19.842Z,74.70
2022-08-10T11:40:16.910Z,74.50
2022-08-10T11:43:11.824Z,73.10
2022-08-10T11:46:10.985Z,74.50
2022-08-10T11:49:07.360Z,68.50
2022-08-10T11:51:59.179Z,60.00
2022-08-10T11:54:53.638Z,55.60
2022-08-10T11:57:53.070Z,53.20
2022-08-10T12:00:43.033Z,50.90
2022-08-10T12:03:34.975Z,48.00
2022-08-10T12:06:54.133Z,45.80
2022-08-10T12:10:09.415Z,48.20
2022-08-10T12:12:51.909Z,46.40
2022-08-10T12:15:47.449Z,45.10
2022-08-10T12:18:46.289Z,47.50
2022-08-10T12:21:42.715Z,48.80
2022-08-10T12:24:39.093Z,52.40
2022-08-10T12:27:33.093Z,54.40
2022-08-10T12:30:27.750Z,54.10
2022-08-10T12:33:24.298Z,58.80
2022-08-10T12:36:19.069Z,68.20
2022-08-10T12:39:16.967Z,69.60
2022-08-10T12:42:10.442Z,78.20
2022-08-10T12:45:04.578Z,66.70
2022-08-10T12:48:01.383Z,75.00
2022-08-10T12:50:56.898Z,84.30
2022-08-10T12:53:54.176Z,84.40
2022-08-10T12:56:48.130Z,88.90
2022-08-10T12:59:43.260Z,73.00
2022-08-10T13:02:34.614Z,72.20
2022-08-10T13:05:27.613Z,70.80
2022-08-10T13:08:34.391Z,71.20
2022-08-10T13:12:44.239Z,70.80
2022-08-10T13:14:47.665Z,69.80
2022-08-10T13:17:42.703Z,68.70
2022-08-10T13:20:35.797Z,68.10
2022-08-10T13:23:28.199Z,69.10
2022-08-10T13:26:23.605Z,68.90
2022-08-10T13:29:17.652Z,67.60
2022-08-10T13:32:15.592Z,68.60
2022-08-10T13:35:09.181Z,63.60
2022-08-10T13:38:01.987Z,64.50
2022-08-10T13:40:51.558Z,64.60
2022-08-10T13:43:51.773Z,67.90
2022-08-10T13:46:42.437Z,65.50
2022-08-10T13:49:43.445Z,66.60
2022-08-10T13:52:33.032Z,68.90
2022-08-10T13:55:25.049Z,74.50
2022-08-10T13:58:15.761Z,76.30
2022-08-10T14:01:11.391Z,78.00
2022-08-10T14:04:02.310Z,79.90
2022-08-10T14:06:56.480Z,78.40
2022-08-10T14:09:47.796Z,75.30
2022-08-10T14:12:38.771Z,71.80
2022-08-10T14:15:31.119Z,70.10
2022-08-10T14:18:21.177Z,71.50
2022-08-10T14:21:10.357Z,70.80
2022-08-10T14:24:00.265Z,70.80
2022-08-10T14:26:49.947Z,73.50
2022-08-10T14:29:43.684Z,74.60
2022-08-10T14:32:33.415Z,76.30
2022-08-10T14:36:20.314Z,77.40
2022-08-10T14:38:36.484Z,75.30
2022-08-10T14:42:01.085Z,74.60
2022-08-10T14:44:47.439Z,75.90
2022-08-10T14:47:53.207Z,76.60
2022-08-10T14:50:55.778Z,77.90
2022-08-10T14:53:51.864Z,78.00
2022-08-10T14:56:42.961Z,77.90
2022-08-10T15:00:22.399Z,78.00
2022-08-10T15:02:56.047Z,79.00
2022-08-10T15:05:47.423Z,79.30
2022-08-10T15:08:37.344Z,79.60
2022-08-10T15:12:12.264Z,79.70
2022-08-10T15:14:45.047Z,80.00
2022-08-10T15:17:37.642Z,80.50
2022-08-10T15:20:28.537Z,79.30
2022-08-10T15:23:30.737Z,76.90
2022-08-10T15:26:22.079Z,77.00
2022-08-10T15:29:24.113Z,78.70
2022-08-10T15:32:33.206Z,79.10
2022-08-10T15:35:42.022Z,79.20
2022-08-10T15:38:35.018Z,80.00
2022-08-10T15:41:58.783Z,79.60
2022-08-10T15:44:50.089Z,80.70
2022-08-10T15:47:44.992Z,82.00
2022-08-10T15:50:41.482Z,81.30
2022-08-10T15:53:49.918Z,80.50
2022-08-10T15:56:46.034Z,80.10
2022-08-10T15:59:42.815Z,80.70
2022-08-10T16:02:36.763Z,81.30
2022-08-10T16:06:00.890Z,81.20
2022-08-10T16:08:56.491Z,81.10
2022-08-10T16:11:55.344Z,81.50
2022-08-10T16:14:49.286Z,82.00
2022-08-10T16:17:54.889Z,82.20
2022-08-10T16:20:54.558Z,82.30
2022-08-10T16:24:14.255Z,82.10
2022-08-10T16:26:58.331Z,82.80
2022-08-10T16:29:55.796Z,83.00
2022-08-10T16:32:47.511Z,83.50
2022-08-10T16:35:37.044Z,84.90
2022-08-10T16:38:28.145Z,84.50
2022-08-10T16:42:00.170Z,85.10
2022-08-10T16:44:34.491Z,85.20
2022-08-10T16:47:28.735Z,84.60
2022-08-10T16:50:24.296Z,83.90
2022-08-10T16:53:15.545Z,84.90
2022-08-10T16:56:08.550Z,84.30
2022-08-10T16:58:58.825Z,85.90
2022-08-10T17:01:51.552Z,86.70
2022-08-10T17:04:45.218Z,85.30
2022-08-10T17:07:35.537Z,85.10
2022-08-10T17:10:25.059Z,85.40
2022-08-10T17:13:16.184Z,84.50
2022-08-10T17:16:08.422Z,84.80
2022-08-10T17:18:59.448Z,84.30
2022-08-10T17:21:52.771Z,84.00
2022-08-10T17:24:47.391Z,82.90
2022-08-10T17:28:03.844Z,83.20
2022-08-10T17:30:58.058Z,82.60
2022-08-10T17:33:49.717Z,83.50
2022-08-10T17:36:39.110Z,83.00
2022-08-10T17:39:33.705Z,86.40
2022-08-10T17:42:23.535Z,88.00
2022-08-10T17:45:46.693Z,90.10
2022-08-10T17:48:32.549Z,87.80
2022-08-10T17:51:22.261Z,87.60
2022-08-10T17:54:24.845Z,87.90
2022-08-10T17:57:18.540Z,87.60
2022-08-10T18:00:11.196Z,84.50
2022-08-10T18:03:01.573Z,87.20
2022-08-10T18:05:55.980Z,85.80
2022-08-10T18:08:51.135Z,85.60
2022-08-10T18:11:44.618Z,86.50
2022-08-10T18:14:35.087Z,86.70
2022-08-10T18:17:25.593Z,88.50
2022-08-10T18:20:20.100Z,89.70
2022-08-10T18:23:11.666Z,89.70
2022-08-10T18:26:05.182Z,89.00
2022-08-10T18:28:56.778Z,90.50
2022-08-10T18:31:46.405Z,90.00
2022-08-10T18:34:36.614Z,91.30
2022-08-10T18:37:28.293Z,92.00
2022-08-10T18:40:20.116Z,91.50
2022-08-10T18:44:05.720Z,91.50
2022-08-10T18:46:29.024Z,92.60
2022-08-10T18:49:28.352Z,94.80
2022-08-10T18:52:18.541Z,93.80
2022-08-10T18:55:14.266Z,94.70
2022-08-10T18:59:02.116Z,93.50
2022-08-10T19:02:04.661Z,91.20
2022-08-10T19:05:30.692Z,90.80
2022-08-10T19:08:49.450Z,90.40
2022-08-10T19:11:55.573Z,90.00
2022-08-10T19:14:56.100Z,90.20
2022-08-10T19:18:03.277Z,92.90
2022-08-10T19:20:59.101Z,90.90
2022-08-10T19:24:06.016Z,91.20
2022-08-10T19:27:04.202Z,91.30
2022-08-10T19:30:13.644Z,91.80
2022-08-10T19:33:13.366Z,93.10
2022-08-10T19:36:11.080Z,91.60
2022-08-10T19:39:15.671Z,93.00
2022-08-10T19:42:12.141Z,92.70
2022-08-10T19:45:56.116Z,94.50
2022-08-10T19:48:35.925Z,96.80
2022-08-10T19:51:29.978Z,99.90
2022-08-10T19:54:26.775Z,99.90
2022-08-10T19:57:26.469Z,99.90
2022-08-10T20:00:23.014Z,99.90
2022-08-10T20:03:22.008Z,99.90
2022-08-10T20:06:20.630Z,99.90
2022-08-10T20:09:17.619Z,99.90
2022-08-10T20:12:09.515Z,99.90
2022-08-10T20:15:05.003Z,99.90
2022-08-10T20:17:58.459Z,99.90
2022-08-10T20:20:50.590Z,99.90
2022-08-10T20:23:55.366Z,99.90
2022-08-10T20:26:47.896Z,99.90
2022-08-10T20:29:58.951Z,99.90
2022-08-10T20:32:51.955Z,99.90
2022-08-10T20:35:55.122Z,99.90
2022-08-10T20:38:51.185Z,99.90
2022-08-10T20:41:58.505Z,99.90
2022-08-10T20:44:55.838Z,99.90
2022-08-10T20:47:54.749Z,99.90
2022-08-10T20:50:48.034Z,99.90
2022-08-10T20:53:45.326Z,99.90
2022-08-10T20:56:43.348Z,99.90
2022-08-10T21:00:03.987Z,99.90
2022-08-10T21:03:20.741Z,99.90
2022-08-10T21:06:42.253Z,99.90
2022-08-10T21:09:50.141Z,99.90
2022-08-10T21:13:09.366Z,99.90
2022-08-10T21:16:10.878Z,99.90
2022-08-10T21:19:20.047Z,99.90
2022-08-10T21:22:15.762Z,99.90
2022-08-10T21:25:09.851Z,99.90
2022-08-10T21:28:16.719Z,99.90
2022-08-10T21:31:26.060Z,99.90
2022-08-10T21:34:32.187Z,99.90
2022-08-10T21:37:26.651Z,99.90
2022-08-10T21:40:40.561Z,99.90
2022-08-10T21:43:59.654Z,99.90
2022-08-10T21:47:27.117Z,99.90
2022-08-10T21:50:45.782Z,99.90
2022-08-10T21:53:57.489Z,99.90
2022-08-10T21:57:12.561Z,99.90
2022-08-10T22:03:50.542Z,99.90
2022-08-10T22:07:03.868Z,99.90
2022-08-10T22:10:13.875Z,99.90
2022-08-10T22:13:26.899Z,99.90
2022-08-10T22:16:45.799Z,99.90
2022-08-10T22:19:54.858Z,99.90
2022-08-10T22:23:04.490Z,99.90
2022-08-10T22:26:41.331Z,99.90
2022-08-10T22:29:56.110Z,99.90
2022-08-10T22:33:23.253Z,99.90
2022-08-10T22:37:10.562Z,99.90
2022-08-10T22:40:22.186Z,99.90
2022-08-10T22:43:37.509Z,99.90
2022-08-10T22:46:48.377Z,99.90
2022-08-10T22:49:35.938Z,99.90
2022-08-10T22:52:29.204Z,99.90
2022-08-10T22:55:47.488Z,99.90
2022-08-10T22:58:41.997Z,99.90
2022-08-10T23:01:42.260Z,99.90
2022-08-10T23:04:54.380Z,99.90
2022-08-10T23:07:50.481Z,99.90
2022-08-10T23:10:42.725Z,99.90
2022-08-10T23:13:36.200Z,99.90
2022-08-10T23:16:46.918Z,99.90
2022-08-10T23:19:41.766Z,99.90
2022-08-10T23:22:35.518Z,99.90
2022-08-10T23:25:30.144Z,99.90
2022-08-10T23:28:39.315Z,99.90
2022-08-10T23:32:00.613Z,99.90
2022-08-10T23:36:30.146Z,99.90
2022-08-10T23:37:57.615Z,99.90
2022-08-10T23:40:48.413Z,99.90
2022-08-10T23:44:02.929Z,99.90
2022-08-10T23:46:50.910Z,99.90
2022-08-10T23:49:40.270Z,99.90
2022-08-10T23:52:34.965Z,99.90
2022-08-10T23:55:26.333Z,99.90
2022-08-10T23:58:31.841Z,99.90
